sensor_id;sensor_type;location;lat;lon;timestamp;P1;durP1;ratioP1;P2;durP2;ratioP2
82560;SDS011;72228;51.208;10.468;2023-12-20T00:01:49;1.88;;;1.00;;
82560;SDS011;72228;51.208;10.468;2023-12-20T00:04:15;1.38;;;1.02;;
82560;SDS011;72228;51.208;10.468;2023-12-20T00:06:41;1.23;;;0.98;;
82560;SDS011;72228;51.208;10.468;2023-12-20T00:09:07;1.13;;;1.02;;
82560;SDS011;72228;51.208;10.468;2023-12-20T00:11:32;2.13;;;1.25;;
82560;SDS011;72228;51.208;10.468;2023-12-20T00:13:58;1.52;;;1.00;;
82560;SDS011;72228;51.208;10.468;2023-12-20T00:16:24;2.40;;;1.42;;
82560;SDS011;72228;51.208;10.468;2023-12-20T00:18:50;2.03;;;1.42;;
82560;SDS011;72228;51.208;10.468;2023-12-20T00:21:16;6.68;;;1.27;;
82560;SDS011;72228;51.208;10.468;2023-12-20T00:23:41;1.30;;;1.15;;
82560;SDS011;72228;51.208;10.468;2023-12-20T00:26:07;2.08;;;1.52;;
82560;SDS011;72228;51.208;10.468;2023-12-20T00:28:33;3.95;;;0.77;;
82560;SDS011;72228;51.208;10.468;2023-12-20T00:30:59;2.10;;;1.30;;
82560;SDS011;72228;51.208;10.468;2023-12-20T00:33:25;1.75;;;1.20;;
82560;SDS011;72228;51.208;10.468;2023-12-20T00:35:51;1.30;;;1.05;;
82560;SDS011;72228;51.208;10.468;2023-12-20T00:38:16;1.45;;;1.10;;
82560;SDS011;72228;51.208;10.468;2023-12-20T00:40:42;2.05;;;1.20;;
82560;SDS011;72228;51.208;10.468;2023-12-20T00:43:08;1.25;;;1.05;;
82560;SDS011;72228;51.208;10.468;2023-12-20T00:45:34;1.83;;;1.40;;
82560;SDS011;72228;51.208;10.468;2023-12-20T00:48:00;2.05;;;1.63;;
82560;SDS011;72228;51.208;10.468;2023-12-20T00:50:26;1.42;;;1.08;;
82560;SDS011;72228;51.208;10.468;2023-12-20T00:52:52;1.33;;;1.05;;
82560;SDS011;72228;51.208;10.468;2023-12-20T00:55:17;1.75;;;1.00;;
82560;SDS011;72228;51.208;10.468;2023-12-20T00:57:43;1.42;;;1.00;;
82560;SDS011;72228;51.208;10.468;2023-12-20T01:00:09;2.03;;;1.20;;
82560;SDS011;72228;51.208;10.468;2023-12-20T01:02:35;1.20;;;1.00;;
82560;SDS011;72228;51.208;10.468;2023-12-20T01:05:01;1.45;;;1.30;;
82560;SDS011;72228;51.208;10.468;2023-12-20T01:07:28;1.42;;;1.08;;
82560;SDS011;72228;51.208;10.468;2023-12-20T01:09:54;2.10;;;1.35;;
82560;SDS011;72228;51.208;10.468;2023-12-20T01:12:20;2.17;;;1.30;;
82560;SDS011;72228;51.208;10.468;2023-12-20T01:14:45;3.20;;;1.25;;
82560;SDS011;72228;51.208;10.468;2023-12-20T01:17:12;1.95;;;1.20;;
82560;SDS011;72228;51.208;10.468;2023-12-20T01:19:37;2.28;;;1.42;;
82560;SDS011;72228;51.208;10.468;2023-12-20T01:22:03;3.15;;;1.40;;
82560;SDS011;72228;51.208;10.468;2023-12-20T01:24:29;7.47;;;1.63;;
82560;SDS011;72228;51.208;10.468;2023-12-20T01:26:55;1.52;;;1.15;;
82560;SDS011;72228;51.208;10.468;2023-12-20T01:29:21;3.63;;;1.42;;
82560;SDS011;72228;51.208;10.468;2023-12-20T01:31:47;1.42;;;1.00;;
82560;SDS011;72228;51.208;10.468;2023-12-20T01:34:13;2.60;;;1.30;;
82560;SDS011;72228;51.208;10.468;2023-12-20T01:36:38;2.30;;;1.10;;
82560;SDS011;72228;51.208;10.468;2023-12-20T01:39:04;1.63;;;1.30;;
82560;SDS011;72228;51.208;10.468;2023-12-20T01:41:30;1.17;;;0.90;;
82560;SDS011;72228;51.208;10.468;2023-12-20T01:43:56;2.47;;;1.25;;
82560;SDS011;72228;51.208;10.468;2023-12-20T01:46:21;2.25;;;1.10;;
82560;SDS011;72228;51.208;10.468;2023-12-20T01:48:48;1.42;;;1.08;;
82560;SDS011;72228;51.208;10.468;2023-12-20T01:51:14;2.20;;;1.23;;
82560;SDS011;72228;51.208;10.468;2023-12-20T01:53:40;2.20;;;1.50;;
82560;SDS011;72228;51.208;10.468;2023-12-20T01:56:07;2.40;;;1.45;;
82560;SDS011;72228;51.208;10.468;2023-12-20T01:58:34;2.78;;;1.58;;
82560;SDS011;72228;51.208;10.468;2023-12-20T02:01:04;2.97;;;1.92;;
82560;SDS011;72228;51.208;10.468;2023-12-20T02:03:30;5.55;;;1.70;;
82560;SDS011;72228;51.208;10.468;2023-12-20T02:05:56;1.55;;;1.20;;
82560;SDS011;72228;51.208;10.468;2023-12-20T02:08:22;3.38;;;1.40;;
82560;SDS011;72228;51.208;10.468;2023-12-20T02:10:48;2.88;;;1.35;;
82560;SDS011;72228;51.208;10.468;2023-12-20T02:13:14;2.13;;;1.25;;
82560;SDS011;72228;51.208;10.468;2023-12-20T02:15:40;2.35;;;1.10;;
82560;SDS011;72228;51.208;10.468;2023-12-20T02:18:08;1.95;;;1.38;;
82560;SDS011;72228;51.208;10.468;2023-12-20T02:20:35;1.92;;;1.33;;
82560;SDS011;72228;51.208;10.468;2023-12-20T02:23:00;1.48;;;1.25;;
82560;SDS011;72228;51.208;10.468;2023-12-20T02:25:26;1.90;;;1.10;;
82560;SDS011;72228;51.208;10.468;2023-12-20T02:27:52;1.13;;;0.85;;
82560;SDS011;72228;51.208;10.468;2023-12-20T02:30:18;1.85;;;1.23;;
82560;SDS011;72228;51.208;10.468;2023-12-20T02:32:44;1.10;;;0.85;;
82560;SDS011;72228;51.208;10.468;2023-12-20T02:35:10;1.08;;;0.77;;
82560;SDS011;72228;51.208;10.468;2023-12-20T02:37:35;1.85;;;1.17;;
82560;SDS011;72228;51.208;10.468;2023-12-20T02:40:01;2.55;;;1.30;;
82560;SDS011;72228;51.208;10.468;2023-12-20T02:42:29;2.13;;;1.63;;
82560;SDS011;72228;51.208;10.468;2023-12-20T02:44:55;4.82;;;1.63;;
82560;SDS011;72228;51.208;10.468;2023-12-20T02:47:21;3.03;;;1.50;;
82560;SDS011;72228;51.208;10.468;2023-12-20T02:49:47;4.25;;;1.40;;
82560;SDS011;72228;51.208;10.468;2023-12-20T02:52:13;3.08;;;1.60;;
82560;SDS011;72228;51.208;10.468;2023-12-20T02:54:38;3.70;;;1.65;;
82560;SDS011;72228;51.208;10.468;2023-12-20T02:57:04;2.35;;;1.23;;
82560;SDS011;72228;51.208;10.468;2023-12-20T02:59:30;1.27;;;0.82;;
82560;SDS011;72228;51.208;10.468;2023-12-20T03:01:56;1.50;;;1.25;;
82560;SDS011;72228;51.208;10.468;2023-12-20T03:04:22;3.00;;;1.35;;
82560;SDS011;72228;51.208;10.468;2023-12-20T03:06:48;2.17;;;1.40;;
82560;SDS011;72228;51.208;10.468;2023-12-20T03:09:14;2.13;;;1.20;;
82560;SDS011;72228;51.208;10.468;2023-12-20T03:11:39;1.58;;;1.20;;
82560;SDS011;72228;51.208;10.468;2023-12-20T03:14:05;2.78;;;1.13;;
82560;SDS011;72228;51.208;10.468;2023-12-20T03:16:31;1.75;;;1.20;;
82560;SDS011;72228;51.208;10.468;2023-12-20T03:18:58;1.13;;;0.85;;
82560;SDS011;72228;51.208;10.468;2023-12-20T03:21:24;2.47;;;1.50;;
82560;SDS011;72228;51.208;10.468;2023-12-20T03:23:50;1.98;;;1.13;;
82560;SDS011;72228;51.208;10.468;2023-12-20T03:26:16;1.20;;;0.98;;
82560;SDS011;72228;51.208;10.468;2023-12-20T03:28:41;2.47;;;1.45;;
82560;SDS011;72228;51.208;10.468;2023-12-20T03:31:09;2.65;;;1.05;;
82560;SDS011;72228;51.208;10.468;2023-12-20T03:33:35;1.92;;;1.50;;
82560;SDS011;72228;51.208;10.468;2023-12-20T03:36:00;2.75;;;1.27;;
82560;SDS011;72228;51.208;10.468;2023-12-20T03:38:27;1.13;;;0.95;;
82560;SDS011;72228;51.208;10.468;2023-12-20T03:40:52;1.38;;;0.80;;
82560;SDS011;72228;51.208;10.468;2023-12-20T03:43:18;1.92;;;0.85;;
82560;SDS011;72228;51.208;10.468;2023-12-20T03:45:44;1.52;;;1.08;;
82560;SDS011;72228;51.208;10.468;2023-12-20T03:48:11;2.10;;;1.02;;
82560;SDS011;72228;51.208;10.468;2023-12-20T03:50:37;4.80;;;1.35;;
82560;SDS011;72228;51.208;10.468;2023-12-20T03:53:03;0.85;;;0.73;;
82560;SDS011;72228;51.208;10.468;2023-12-20T03:55:29;2.83;;;1.08;;
82560;SDS011;72228;51.208;10.468;2023-12-20T03:57:55;1.08;;;0.95;;
82560;SDS011;72228;51.208;10.468;2023-12-20T04:00:20;2.10;;;1.38;;
82560;SDS011;72228;51.208;10.468;2023-12-20T04:02:46;1.33;;;1.08;;
82560;SDS011;72228;51.208;10.468;2023-12-20T04:05:12;5.20;;;1.25;;
82560;SDS011;72228;51.208;10.468;2023-12-20T04:07:38;3.05;;;1.75;;
82560;SDS011;72228;51.208;10.468;2023-12-20T04:10:04;2.90;;;1.23;;
82560;SDS011;72228;51.208;10.468;2023-12-20T04:12:32;1.67;;;1.10;;
82560;SDS011;72228;51.208;10.468;2023-12-20T04:14:58;0.73;;;0.73;;
82560;SDS011;72228;51.208;10.468;2023-12-20T04:17:24;2.47;;;1.70;;
82560;SDS011;72228;51.208;10.468;2023-12-20T04:19:50;1.60;;;0.90;;
82560;SDS011;72228;51.208;10.468;2023-12-20T04:22:19;0.70;;;0.70;;
82560;SDS011;72228;51.208;10.468;2023-12-20T04:24:45;3.17;;;1.17;;
82560;SDS011;72228;51.208;10.468;2023-12-20T04:27:11;2.22;;;1.45;;
82560;SDS011;72228;51.208;10.468;2023-12-20T04:29:37;0.60;;;0.60;;
82560;SDS011;72228;51.208;10.468;2023-12-20T04:32:03;1.55;;;1.20;;
82560;SDS011;72228;51.208;10.468;2023-12-20T04:34:30;1.35;;;1.05;;
82560;SDS011;72228;51.208;10.468;2023-12-20T04:36:55;6.70;;;1.30;;
82560;SDS011;72228;51.208;10.468;2023-12-20T04:39:21;4.28;;;1.40;;
82560;SDS011;72228;51.208;10.468;2023-12-20T04:41:47;5.68;;;1.45;;
82560;SDS011;72228;51.208;10.468;2023-12-20T04:44:13;4.53;;;1.40;;
82560;SDS011;72228;51.208;10.468;2023-12-20T04:46:39;1.42;;;1.05;;
82560;SDS011;72228;51.208;10.468;2023-12-20T04:49:05;5.57;;;1.58;;
82560;SDS011;72228;51.208;10.468;2023-12-20T04:51:34;3.00;;;0.73;;
82560;SDS011;72228;51.208;10.468;2023-12-20T04:54:00;5.22;;;1.30;;
82560;SDS011;72228;51.208;10.468;2023-12-20T04:56:27;3.28;;;1.35;;
82560;SDS011;72228;51.208;10.468;2023-12-20T04:58:53;4.00;;;1.50;;
82560;SDS011;72228;51.208;10.468;2023-12-20T05:01:20;6.25;;;1.50;;
82560;SDS011;72228;51.208;10.468;2023-12-20T05:03:47;2.17;;;1.48;;
82560;SDS011;72228;51.208;10.468;2023-12-20T05:06:12;1.52;;;1.27;;
82560;SDS011;72228;51.208;10.468;2023-12-20T05:08:38;6.85;;;2.53;;
82560;SDS011;72228;51.208;10.468;2023-12-20T05:11:04;3.58;;;2.38;;
82560;SDS011;72228;51.208;10.468;2023-12-20T05:13:30;98.40;;;30.27;;
82560;SDS011;72228;51.208;10.468;2023-12-20T05:15:56;107.25;;;39.20;;
82560;SDS011;72228;51.208;10.468;2023-12-20T05:18:22;123.53;;;39.65;;
82560;SDS011;72228;51.208;10.468;2023-12-20T05:20:49;126.30;;;38.90;;
82560;SDS011;72228;51.208;10.468;2023-12-20T05:23:16;52.60;;;17.10;;
82560;SDS011;72228;51.208;10.468;2023-12-20T05:25:42;136.05;;;46.15;;
82560;SDS011;72228;51.208;10.468;2023-12-20T05:28:08;48.95;;;18.20;;
82560;SDS011;72228;51.208;10.468;2023-12-20T05:30:34;26.83;;;10.60;;
82560;SDS011;72228;51.208;10.468;2023-12-20T05:33:00;123.45;;;49.72;;
82560;SDS011;72228;51.208;10.468;2023-12-20T05:35:26;43.70;;;16.38;;
82560;SDS011;72228;51.208;10.468;2023-12-20T05:37:52;18.33;;;6.63;;
82560;SDS011;72228;51.208;10.468;2023-12-20T05:40:17;21.25;;;7.32;;
82560;SDS011;72228;51.208;10.468;2023-12-20T05:42:43;22.10;;;8.73;;
82560;SDS011;72228;51.208;10.468;2023-12-20T05:45:09;10.40;;;4.28;;
82560;SDS011;72228;51.208;10.468;2023-12-20T05:47:36;13.93;;;5.57;;
82560;SDS011;72228;51.208;10.468;2023-12-20T05:50:02;10.23;;;6.93;;
82560;SDS011;72228;51.208;10.468;2023-12-20T05:52:28;7.25;;;3.35;;
82560;SDS011;72228;51.208;10.468;2023-12-20T05:54:54;4.10;;;2.50;;
82560;SDS011;72228;51.208;10.468;2023-12-20T05:57:21;6.22;;;2.20;;
82560;SDS011;72228;51.208;10.468;2023-12-20T05:59:47;3.20;;;1.67;;
82560;SDS011;72228;51.208;10.468;2023-12-20T06:02:13;3.45;;;1.63;;
82560;SDS011;72228;51.208;10.468;2023-12-20T06:04:41;5.82;;;1.75;;
82560;SDS011;72228;51.208;10.468;2023-12-20T06:07:10;2.58;;;1.38;;
82560;SDS011;72228;51.208;10.468;2023-12-20T06:09:37;5.05;;;1.63;;
82560;SDS011;72228;51.208;10.468;2023-12-20T06:12:03;3.13;;;1.45;;
82560;SDS011;72228;51.208;10.468;2023-12-20T06:14:29;4.35;;;2.58;;
82560;SDS011;72228;51.208;10.468;2023-12-20T06:16:56;4.53;;;2.22;;
82560;SDS011;72228;51.208;10.468;2023-12-20T06:19:22;3.35;;;1.60;;
82560;SDS011;72228;51.208;10.468;2023-12-20T06:21:48;1.90;;;1.50;;
82560;SDS011;72228;51.208;10.468;2023-12-20T06:24:14;3.75;;;1.30;;
82560;SDS011;72228;51.208;10.468;2023-12-20T06:26:40;2.30;;;1.45;;
82560;SDS011;72228;51.208;10.468;2023-12-20T06:29:06;7.57;;;1.17;;
82560;SDS011;72228;51.208;10.468;2023-12-20T06:31:32;1.98;;;1.15;;
82560;SDS011;72228;51.208;10.468;2023-12-20T06:33:58;2.50;;;1.38;;
82560;SDS011;72228;51.208;10.468;2023-12-20T06:36:25;2.50;;;1.23;;
82560;SDS011;72228;51.208;10.468;2023-12-20T06:38:52;3.25;;;1.45;;
82560;SDS011;72228;51.208;10.468;2023-12-20T06:41:18;9.35;;;2.95;;
82560;SDS011;72228;51.208;10.468;2023-12-20T06:43:43;7.97;;;3.70;;
82560;SDS011;72228;51.208;10.468;2023-12-20T06:46:09;4.95;;;1.75;;
82560;SDS011;72228;51.208;10.468;2023-12-20T06:48:36;5.80;;;2.85;;
82560;SDS011;72228;51.208;10.468;2023-12-20T06:51:02;6.15;;;2.35;;
82560;SDS011;72228;51.208;10.468;2023-12-20T06:53:27;5.72;;;2.70;;
82560;SDS011;72228;51.208;10.468;2023-12-20T06:55:54;3.75;;;1.65;;
82560;SDS011;72228;51.208;10.468;2023-12-20T06:58:22;6.70;;;2.83;;
82560;SDS011;72228;51.208;10.468;2023-12-20T07:00:48;4.18;;;2.10;;
82560;SDS011;72228;51.208;10.468;2023-12-20T07:03:14;5.95;;;1.95;;
82560;SDS011;72228;51.208;10.468;2023-12-20T07:05:40;2.90;;;2.08;;
82560;SDS011;72228;51.208;10.468;2023-12-20T07:08:06;4.20;;;2.05;;
82560;SDS011;72228;51.208;10.468;2023-12-20T07:10:32;4.65;;;3.28;;
82560;SDS011;72228;51.208;10.468;2023-12-20T07:12:58;5.65;;;3.58;;
82560;SDS011;72228;51.208;10.468;2023-12-20T07:15:24;6.22;;;2.60;;
82560;SDS011;72228;51.208;10.468;2023-12-20T07:17:49;4.78;;;3.17;;
82560;SDS011;72228;51.208;10.468;2023-12-20T07:20:15;7.60;;;3.90;;
82560;SDS011;72228;51.208;10.468;2023-12-20T07:22:41;3.50;;;2.22;;
82560;SDS011;72228;51.208;10.468;2023-12-20T07:25:07;4.70;;;2.55;;
82560;SDS011;72228;51.208;10.468;2023-12-20T07:27:33;6.78;;;4.22;;
82560;SDS011;72228;51.208;10.468;2023-12-20T07:29:59;5.07;;;2.30;;
82560;SDS011;72228;51.208;10.468;2023-12-20T07:32:26;3.75;;;2.55;;
82560;SDS011;72228;51.208;10.468;2023-12-20T07:34:52;5.88;;;3.65;;
82560;SDS011;72228;51.208;10.468;2023-12-20T07:37:19;14.68;;;7.25;;
82560;SDS011;72228;51.208;10.468;2023-12-20T07:39:45;5.93;;;4.13;;
82560;SDS011;72228;51.208;10.468;2023-12-20T07:42:11;6.40;;;3.03;;
82560;SDS011;72228;51.208;10.468;2023-12-20T07:44:36;8.43;;;3.00;;
82560;SDS011;72228;51.208;10.468;2023-12-20T07:47:03;11.63;;;3.53;;
82560;SDS011;72228;51.208;10.468;2023-12-20T07:49:30;9.70;;;4.03;;
82560;SDS011;72228;51.208;10.468;2023-12-20T07:51:56;7.57;;;2.80;;
82560;SDS011;72228;51.208;10.468;2023-12-20T07:54:21;4.95;;;3.45;;
82560;SDS011;72228;51.208;10.468;2023-12-20T07:56:48;7.35;;;2.83;;
82560;SDS011;72228;51.208;10.468;2023-12-20T07:59:14;5.15;;;2.80;;
82560;SDS011;72228;51.208;10.468;2023-12-20T08:01:40;4.60;;;2.47;;
82560;SDS011;72228;51.208;10.468;2023-12-20T08:04:07;4.78;;;1.70;;
82560;SDS011;72228;51.208;10.468;2023-12-20T08:06:33;2.97;;;2.13;;
82560;SDS011;72228;51.208;10.468;2023-12-20T08:08:59;4.20;;;2.22;;
82560;SDS011;72228;51.208;10.468;2023-12-20T08:11:25;3.30;;;2.40;;
82560;SDS011;72228;51.208;10.468;2023-12-20T08:13:51;3.78;;;1.95;;
82560;SDS011;72228;51.208;10.468;2023-12-20T08:16:17;3.90;;;1.58;;
82560;SDS011;72228;51.208;10.468;2023-12-20T08:18:43;3.90;;;1.83;;
82560;SDS011;72228;51.208;10.468;2023-12-20T08:21:09;2.92;;;2.08;;
82560;SDS011;72228;51.208;10.468;2023-12-20T08:23:35;2.67;;;1.83;;
82560;SDS011;72228;51.208;10.468;2023-12-20T08:26:07;8.30;;;1.98;;
82560;SDS011;72228;51.208;10.468;2023-12-20T08:28:34;3.67;;;2.15;;
82560;SDS011;72228;51.208;10.468;2023-12-20T08:31:00;2.63;;;1.77;;
82560;SDS011;72228;51.208;10.468;2023-12-20T08:33:26;5.45;;;1.95;;
82560;SDS011;72228;51.208;10.468;2023-12-20T08:35:52;8.20;;;2.65;;
82560;SDS011;72228;51.208;10.468;2023-12-20T08:38:18;7.20;;;2.17;;
82560;SDS011;72228;51.208;10.468;2023-12-20T08:40:44;4.90;;;2.53;;
82560;SDS011;72228;51.208;10.468;2023-12-20T08:43:10;7.05;;;1.98;;
82560;SDS011;72228;51.208;10.468;2023-12-20T08:45:37;5.32;;;1.90;;
82560;SDS011;72228;51.208;10.468;2023-12-20T08:48:04;3.35;;;2.15;;
82560;SDS011;72228;51.208;10.468;2023-12-20T08:50:30;2.88;;;1.92;;
82560;SDS011;72228;51.208;10.468;2023-12-20T08:52:56;4.40;;;1.73;;
82560;SDS011;72228;51.208;10.468;2023-12-20T08:55:22;4.70;;;2.20;;
82560;SDS011;72228;51.208;10.468;2023-12-20T08:57:48;5.68;;;2.10;;
82560;SDS011;72228;51.208;10.468;2023-12-20T09:00:15;5.22;;;1.95;;
82560;SDS011;72228;51.208;10.468;2023-12-20T09:02:41;4.90;;;1.65;;
82560;SDS011;72228;51.208;10.468;2023-12-20T09:05:07;2.58;;;1.80;;
82560;SDS011;72228;51.208;10.468;2023-12-20T09:07:33;4.68;;;2.17;;
82560;SDS011;72228;51.208;10.468;2023-12-20T09:10:00;2.72;;;1.92;;
82560;SDS011;72228;51.208;10.468;2023-12-20T09:12:26;4.20;;;1.90;;
82560;SDS011;72228;51.208;10.468;2023-12-20T09:14:52;7.22;;;1.88;;
82560;SDS011;72228;51.208;10.468;2023-12-20T09:17:18;2.72;;;1.38;;
82560;SDS011;72228;51.208;10.468;2023-12-20T09:19:44;9.02;;;1.90;;
82560;SDS011;72228;51.208;10.468;2023-12-20T09:22:11;4.28;;;1.52;;
82560;SDS011;72228;51.208;10.468;2023-12-20T09:24:37;3.75;;;1.80;;
82560;SDS011;72228;51.208;10.468;2023-12-20T09:27:04;6.28;;;1.90;;
82560;SDS011;72228;51.208;10.468;2023-12-20T09:29:31;4.40;;;1.73;;
82560;SDS011;72228;51.208;10.468;2023-12-20T09:31:57;6.15;;;1.73;;
82560;SDS011;72228;51.208;10.468;2023-12-20T09:34:23;6.93;;;2.15;;
82560;SDS011;72228;51.208;10.468;2023-12-20T09:36:49;2.70;;;1.50;;
82560;SDS011;72228;51.208;10.468;2023-12-20T09:39:16;2.83;;;1.80;;
82560;SDS011;72228;51.208;10.468;2023-12-20T09:41:51;1.90;;;1.30;;
82560;SDS011;72228;51.208;10.468;2023-12-20T09:44:22;5.35;;;2.67;;
82560;SDS011;72228;51.208;10.468;2023-12-20T09:46:50;7.47;;;1.60;;
82560;SDS011;72228;51.208;10.468;2023-12-20T09:49:18;8.85;;;2.10;;
82560;SDS011;72228;51.208;10.468;2023-12-20T09:51:50;6.70;;;2.25;;
82560;SDS011;72228;51.208;10.468;2023-12-20T09:54:17;7.43;;;2.28;;
82560;SDS011;72228;51.208;10.468;2023-12-20T09:56:44;3.63;;;1.70;;
82560;SDS011;72228;51.208;10.468;2023-12-20T09:59:10;4.00;;;1.88;;
82560;SDS011;72228;51.208;10.468;2023-12-20T10:01:36;8.90;;;2.47;;
82560;SDS011;72228;51.208;10.468;2023-12-20T10:04:05;8.20;;;2.25;;
82560;SDS011;72228;51.208;10.468;2023-12-20T10:06:36;8.23;;;2.20;;
82560;SDS011;72228;51.208;10.468;2023-12-20T10:09:02;8.50;;;2.10;;
82560;SDS011;72228;51.208;10.468;2023-12-20T10:11:28;2.53;;;1.60;;
82560;SDS011;72228;51.208;10.468;2023-12-20T10:13:58;6.47;;;1.90;;
82560;SDS011;72228;51.208;10.468;2023-12-20T10:16:26;5.82;;;1.67;;
82560;SDS011;72228;51.208;10.468;2023-12-20T10:18:53;6.00;;;1.80;;
82560;SDS011;72228;51.208;10.468;2023-12-20T10:21:20;3.88;;;1.58;;
82560;SDS011;72228;51.208;10.468;2023-12-20T10:23:46;10.68;;;2.08;;
82560;SDS011;72228;51.208;10.468;2023-12-20T10:28:50;11.45;;;2.25;;
82560;SDS011;72228;51.208;10.468;2023-12-20T10:31:37;8.30;;;3.95;;
82560;SDS011;72228;51.208;10.468;2023-12-20T10:34:08;3.45;;;1.75;;
82560;SDS011;72228;51.208;10.468;2023-12-20T10:36:33;6.82;;;1.80;;
82560;SDS011;72228;51.208;10.468;2023-12-20T10:39:01;4.03;;;2.40;;
82560;SDS011;72228;51.208;10.468;2023-12-20T10:41:29;2.33;;;1.35;;
82560;SDS011;72228;51.208;10.468;2023-12-20T10:43:59;5.47;;;1.60;;
82560;SDS011;72228;51.208;10.468;2023-12-20T10:46:27;3.83;;;1.77;;
82560;SDS011;72228;51.208;10.468;2023-12-20T10:48:55;3.40;;;1.70;;
82560;SDS011;72228;51.208;10.468;2023-12-20T10:51:23;2.53;;;1.48;;
82560;SDS011;72228;51.208;10.468;2023-12-20T10:53:52;17.98;;;4.38;;
82560;SDS011;72228;51.208;10.468;2023-12-20T10:56:18;2.30;;;1.65;;
82560;SDS011;72228;51.208;10.468;2023-12-20T10:58:46;6.65;;;3.13;;
82560;SDS011;72228;51.208;10.468;2023-12-20T11:01:13;8.25;;;3.50;;
82560;SDS011;72228;51.208;10.468;2023-12-20T11:03:53;6.97;;;2.10;;
82560;SDS011;72228;51.208;10.468;2023-12-20T11:09:23;8.45;;;1.98;;
82560;SDS011;72228;51.208;10.468;2023-12-20T11:17:09;8.70;;;3.30;;
82560;SDS011;72228;51.208;10.468;2023-12-20T11:20:24;6.40;;;2.22;;
82560;SDS011;72228;51.208;10.468;2023-12-20T11:22:29;2.75;;;1.67;;
82560;SDS011;72228;51.208;10.468;2023-12-20T11:25:03;6.78;;;2.92;;
82560;SDS011;72228;51.208;10.468;2023-12-20T11:27:33;7.72;;;2.55;;
82560;SDS011;72228;51.208;10.468;2023-12-20T11:30:00;5.18;;;2.90;;
82560;SDS011;72228;51.208;10.468;2023-12-20T11:32:33;7.30;;;2.70;;
82560;SDS011;72228;51.208;10.468;2023-12-20T11:35:00;7.97;;;3.60;;
82560;SDS011;72228;51.208;10.468;2023-12-20T11:37:38;7.18;;;3.05;;
82560;SDS011;72228;51.208;10.468;2023-12-20T11:40:13;3.40;;;2.20;;
82560;SDS011;72228;51.208;10.468;2023-12-20T11:42:40;8.65;;;2.72;;
82560;SDS011;72228;51.208;10.468;2023-12-20T11:45:14;9.40;;;2.20;;
82560;SDS011;72228;51.208;10.468;2023-12-20T11:47:42;3.70;;;1.70;;
82560;SDS011;72228;51.208;10.468;2023-12-20T11:50:10;2.83;;;1.63;;
82560;SDS011;72228;51.208;10.468;2023-12-20T11:52:36;3.75;;;1.90;;
82560;SDS011;72228;51.208;10.468;2023-12-20T11:55:02;9.30;;;1.50;;
82560;SDS011;72228;51.208;10.468;2023-12-20T11:57:30;2.80;;;1.42;;
82560;SDS011;72228;51.208;10.468;2023-12-20T11:59:56;2.53;;;1.42;;
82560;SDS011;72228;51.208;10.468;2023-12-20T12:02:22;2.53;;;1.67;;
82560;SDS011;72228;51.208;10.468;2023-12-20T12:04:49;5.10;;;2.72;;
82560;SDS011;72228;51.208;10.468;2023-12-20T12:07:18;4.15;;;3.15;;
82560;SDS011;72228;51.208;10.468;2023-12-20T12:09:45;2.70;;;1.52;;
82560;SDS011;72228;51.208;10.468;2023-12-20T12:12:12;5.45;;;1.73;;
82560;SDS011;72228;51.208;10.468;2023-12-20T12:14:38;5.65;;;2.10;;
82560;SDS011;72228;51.208;10.468;2023-12-20T12:17:15;2.85;;;1.63;;
82560;SDS011;72228;51.208;10.468;2023-12-20T12:19:41;2.50;;;1.52;;
82560;SDS011;72228;51.208;10.468;2023-12-20T12:22:12;2.15;;;1.48;;
82560;SDS011;72228;51.208;10.468;2023-12-20T12:24:39;4.55;;;1.95;;
82560;SDS011;72228;51.208;10.468;2023-12-20T12:27:06;1.60;;;0.95;;
82560;SDS011;72228;51.208;10.468;2023-12-20T12:29:33;1.92;;;1.38;;
82560;SDS011;72228;51.208;10.468;2023-12-20T12:32:00;3.65;;;1.30;;
82560;SDS011;72228;51.208;10.468;2023-12-20T12:34:29;2.20;;;1.50;;
82560;SDS011;72228;51.208;10.468;2023-12-20T12:36:55;5.57;;;1.60;;
82560;SDS011;72228;51.208;10.468;2023-12-20T12:39:23;2.78;;;1.40;;
82560;SDS011;72228;51.208;10.468;2023-12-20T12:41:51;3.22;;;1.73;;
82560;SDS011;72228;51.208;10.468;2023-12-20T12:44:17;24.70;;;9.02;;
82560;SDS011;72228;51.208;10.468;2023-12-20T12:46:46;79.65;;;24.50;;
82560;SDS011;72228;51.208;10.468;2023-12-20T12:49:15;7.57;;;3.85;;
82560;SDS011;72228;51.208;10.468;2023-12-20T12:51:41;5.60;;;3.63;;
82560;SDS011;72228;51.208;10.468;2023-12-20T12:54:06;4.85;;;1.65;;
82560;SDS011;72228;51.208;10.468;2023-12-20T12:56:32;4.60;;;1.75;;
82560;SDS011;72228;51.208;10.468;2023-12-20T12:58:58;4.00;;;1.67;;
82560;SDS011;72228;51.208;10.468;2023-12-20T13:01:24;4.32;;;1.77;;
82560;SDS011;72228;51.208;10.468;2023-12-20T13:03:50;6.00;;;2.08;;
82560;SDS011;72228;51.208;10.468;2023-12-20T13:06:16;6.05;;;1.80;;
82560;SDS011;72228;51.208;10.468;2023-12-20T13:08:42;4.25;;;1.70;;
82560;SDS011;72228;51.208;10.468;2023-12-20T13:11:09;1.75;;;1.30;;
82560;SDS011;72228;51.208;10.468;2023-12-20T13:13:35;1.95;;;1.20;;
82560;SDS011;72228;51.208;10.468;2023-12-20T13:16:01;2.35;;;1.10;;
82560;SDS011;72228;51.208;10.468;2023-12-20T13:18:28;1.85;;;1.65;;
82560;SDS011;72228;51.208;10.468;2023-12-20T13:20:54;6.40;;;1.98;;
82560;SDS011;72228;51.208;10.468;2023-12-20T13:23:19;5.07;;;1.67;;
82560;SDS011;72228;51.208;10.468;2023-12-20T13:25:45;2.28;;;1.42;;
82560;SDS011;72228;51.208;10.468;2023-12-20T13:28:12;2.22;;;1.88;;
82560;SDS011;72228;51.208;10.468;2023-12-20T13:30:38;1.88;;;1.58;;
82560;SDS011;72228;51.208;10.468;2023-12-20T13:33:05;2.72;;;1.75;;
82560;SDS011;72228;51.208;10.468;2023-12-20T13:35:32;1.55;;;1.23;;
82560;SDS011;72228;51.208;10.468;2023-12-20T13:37:58;2.70;;;0.93;;
82560;SDS011;72228;51.208;10.468;2023-12-20T13:40:26;3.42;;;1.42;;
82560;SDS011;72228;51.208;10.468;2023-12-20T13:42:52;3.72;;;1.75;;
82560;SDS011;72228;51.208;10.468;2023-12-20T13:45:17;2.58;;;1.27;;
82560;SDS011;72228;51.208;10.468;2023-12-20T13:47:43;2.88;;;1.33;;
82560;SDS011;72228;51.208;10.468;2023-12-20T13:50:09;1.52;;;1.02;;
82560;SDS011;72228;51.208;10.468;2023-12-20T13:52:35;3.97;;;1.33;;
82560;SDS011;72228;51.208;10.468;2023-12-20T13:55:01;6.70;;;2.35;;
82560;SDS011;72228;51.208;10.468;2023-12-20T13:57:27;2.28;;;1.60;;
82560;SDS011;72228;51.208;10.468;2023-12-20T13:59:55;1.58;;;1.00;;
82560;SDS011;72228;51.208;10.468;2023-12-20T14:02:23;3.83;;;1.70;;
82560;SDS011;72228;51.208;10.468;2023-12-20T14:04:49;2.35;;;1.88;;
82560;SDS011;72228;51.208;10.468;2023-12-20T14:07:15;3.03;;;1.05;;
82560;SDS011;72228;51.208;10.468;2023-12-20T14:09:41;6.70;;;1.48;;
82560;SDS011;72228;51.208;10.468;2023-12-20T14:12:11;5.32;;;1.98;;
82560;SDS011;72228;51.208;10.468;2023-12-20T14:14:37;4.45;;;1.70;;
82560;SDS011;72228;51.208;10.468;2023-12-20T14:17:03;5.20;;;2.45;;
82560;SDS011;72228;51.208;10.468;2023-12-20T14:19:32;5.05;;;2.78;;
82560;SDS011;72228;51.208;10.468;2023-12-20T14:21:58;7.97;;;2.42;;
82560;SDS011;72228;51.208;10.468;2023-12-20T14:24:27;4.22;;;1.83;;
82560;SDS011;72228;51.208;10.468;2023-12-20T14:26:53;2.83;;;1.92;;
82560;SDS011;72228;51.208;10.468;2023-12-20T14:29:19;4.45;;;1.98;;
82560;SDS011;72228;51.208;10.468;2023-12-20T14:31:45;4.75;;;2.95;;
82560;SDS011;72228;51.208;10.468;2023-12-20T14:34:11;2.90;;;1.60;;
82560;SDS011;72228;51.208;10.468;2023-12-20T14:36:37;8.93;;;4.05;;
82560;SDS011;72228;51.208;10.468;2023-12-20T14:39:03;3.63;;;2.25;;
82560;SDS011;72228;51.208;10.468;2023-12-20T14:41:32;7.05;;;2.53;;